createdAt,value
2018-05-23T00:01:55.015Z,13.87
2018-05-23T00:04:24.580Z,13.60
2018-05-23T00:06:53.951Z,15.00
2018-05-23T00:09:23.568Z,14.87
2018-05-23T00:11:53.218Z,14.03
2018-05-23T00:14:22.778Z,15.87
2018-05-23T00:16:52.355Z,14.60
2018-05-23T00:19:22.002Z,14.20
2018-05-23T00:21:51.583Z,14.00
2018-05-23T00:24:21.175Z,16.07
2018-05-23T00:26:50.752Z,14.20
2018-05-23T00:29:20.345Z,15.43
2018-05-23T00:31:49.907Z,15.50
2018-05-23T00:34:19.513Z,15.77
2018-05-23T00:36:49.153Z,15.10
2018-05-23T00:39:18.724Z,16.00
2018-05-23T00:41:48.304Z,15.80
2018-05-23T00:44:17.889Z,15.30
2018-05-23T00:46:47.468Z,17.17
2018-05-23T00:49:17.045Z,15.40
2018-05-23T00:51:46.626Z,15.83
2018-05-23T00:54:16.194Z,15.00
2018-05-23T00:56:45.825Z,15.00
2018-05-23T00:59:15.740Z,14.57
2018-05-23T01:01:45.298Z,16.00
2018-05-23T01:04:14.648Z,17.13
2018-05-23T01:06:44.228Z,15.47
2018-05-23T01:09:13.814Z,14.53
2018-05-23T01:11:43.389Z,15.80
2018-05-23T01:14:13.102Z,16.57
2018-05-23T01:16:42.770Z,16.40
2018-05-23T01:19:12.199Z,15.13
2018-05-23T01:21:41.778Z,16.80
2018-05-23T01:24:11.448Z,17.23
2018-05-23T01:26:41.023Z,16.70
2018-05-23T01:29:10.583Z,16.07
2018-05-23T01:31:40.161Z,16.10
2018-05-23T01:34:09.740Z,15.40
2018-05-23T01:36:39.326Z,16.80
2018-05-23T01:39:08.955Z,17.77
2018-05-23T01:41:38.539Z,16.67
2018-05-23T01:44:08.105Z,18.00
2018-05-23T01:46:37.693Z,17.27
2018-05-23T01:49:18.362Z,17.37
2018-05-23T01:51:47.939Z,17.00
2018-05-23T01:54:17.530Z,17.63
2018-05-23T01:56:47.106Z,16.23
2018-05-23T01:59:16.735Z,17.40
2018-05-23T02:01:46.333Z,16.77
2018-05-23T02:04:15.978Z,18.10
2018-05-23T02:06:45.590Z,18.13
2018-05-23T02:09:15.158Z,17.17
2018-05-23T02:11:44.920Z,19.00
2018-05-23T02:14:14.490Z,20.57
2018-05-23T02:16:44.076Z,18.20
2018-05-23T02:19:13.427Z,19.87
2018-05-23T02:21:43.103Z,18.83
2018-05-23T02:24:12.858Z,18.40
2018-05-23T02:26:42.651Z,19.10
2018-05-23T02:29:12.231Z,18.00
2018-05-23T02:31:41.800Z,18.67
2018-05-23T02:34:11.363Z,17.20
2018-05-23T02:36:40.978Z,17.67
2018-05-23T02:39:10.544Z,19.07
2018-05-23T02:41:40.127Z,18.20
2018-05-23T02:44:09.825Z,17.50
2018-05-23T02:46:39.380Z,18.47
2018-05-23T02:49:08.948Z,18.10
2018-05-23T02:51:38.575Z,18.93
2018-05-23T02:54:08.132Z,18.73
2018-05-23T02:56:37.707Z,17.97
2018-05-23T02:59:07.283Z,19.83
2018-05-23T03:01:36.931Z,20.40
2018-05-23T03:04:06.520Z,20.13
2018-05-23T03:06:36.099Z,19.00
2018-05-23T03:09:05.886Z,20.20
2018-05-23T03:11:35.458Z,20.67
2018-05-23T03:14:05.040Z,19.40
2018-05-23T03:16:34.686Z,18.80
2018-05-23T03:19:03.939Z,18.60
2018-05-23T03:21:33.507Z,18.17
2018-05-23T03:24:03.084Z,20.17
2018-05-23T03:26:32.411Z,19.57
2018-05-23T03:29:02.202Z,19.87
2018-05-23T03:31:31.849Z,17.97
2018-05-23T03:34:01.426Z,20.13
2018-05-23T03:36:30.809Z,18.07
2018-05-23T03:39:00.394Z,18.63
2018-05-23T03:41:29.955Z,17.40
2018-05-23T03:43:59.537Z,19.23
2018-05-23T03:46:29.107Z,19.80
2018-05-23T03:48:58.676Z,19.50
2018-05-23T03:51:28.425Z,18.00
2018-05-23T03:53:57.995Z,18.73
2018-05-23T03:56:27.569Z,17.80
2018-05-23T03:58:57.142Z,16.77
2018-05-23T04:01:37.790Z,17.23
2018-05-23T04:04:18.263Z,15.23
2018-05-23T04:06:58.782Z,16.03
2018-05-23T04:09:28.395Z,16.27
2018-05-23T04:11:57.951Z,16.80
2018-05-23T04:14:27.523Z,16.60
2018-05-23T04:16:57.107Z,17.50
2018-05-23T04:19:26.680Z,17.30
2018-05-23T04:21:56.239Z,18.40
2018-05-23T04:24:25.846Z,16.40
2018-05-23T04:26:55.429Z,17.37
2018-05-23T04:29:25.032Z,15.50
2018-05-23T04:31:54.588Z,16.40
2018-05-23T04:34:24.157Z,16.93
2018-05-23T04:36:53.745Z,15.40
2018-05-23T04:39:23.334Z,15.30
2018-05-23T04:41:53.115Z,15.87
2018-05-23T04:44:22.674Z,14.00
2018-05-23T04:46:52.270Z,15.30
2018-05-23T04:49:21.860Z,14.83
2018-05-23T04:51:51.775Z,14.20
2018-05-23T04:54:21.354Z,13.50
2018-05-23T04:56:51.427Z,13.80
2018-05-23T04:59:21.023Z,14.33
2018-05-23T05:01:50.591Z,14.70
2018-05-23T05:04:20.159Z,14.07
2018-05-23T05:06:49.747Z,14.07
2018-05-23T05:09:19.395Z,13.50
2018-05-23T05:11:48.960Z,14.47
2018-05-23T05:14:18.233Z,14.07
2018-05-23T05:16:47.810Z,13.80
2018-05-23T05:19:17.388Z,13.40
2018-05-23T05:21:46.986Z,13.00
2018-05-23T05:24:16.691Z,13.30
2018-05-23T05:26:46.274Z,11.97
2018-05-23T05:29:16.071Z,12.23
2018-05-23T05:31:45.642Z,12.27
2018-05-23T05:34:15.438Z,11.70
2018-05-23T05:36:45.018Z,12.07
2018-05-23T05:39:14.575Z,13.40
2018-05-23T05:41:44.192Z,12.00
2018-05-23T05:44:13.776Z,11.87
2018-05-23T05:46:43.351Z,11.93
2018-05-23T05:49:13.179Z,11.93
2018-05-23T05:51:42.767Z,12.00
2018-05-23T05:54:12.335Z,11.77
2018-05-23T05:56:41.931Z,9.63
2018-05-23T05:59:11.482Z,11.83
2018-05-23T06:01:41.207Z,10.73
2018-05-23T06:04:10.824Z,10.03
2018-05-23T06:06:40.410Z,10.50
2018-05-23T06:09:09.991Z,11.07
2018-05-23T06:11:39.344Z,11.37
2018-05-23T06:14:08.924Z,11.30
2018-05-23T06:16:38.512Z,11.57
2018-05-23T06:19:08.071Z,10.57
2018-05-23T06:21:37.639Z,10.83
2018-05-23T06:24:07.219Z,11.90
2018-05-23T06:26:36.802Z,10.60
2018-05-23T06:29:06.494Z,11.10
2018-05-23T06:31:36.067Z,11.13
2018-05-23T06:34:05.636Z,12.13
2018-05-23T06:36:35.218Z,12.30
2018-05-23T06:39:04.248Z,10.90
2018-05-23T06:41:33.269Z,11.57
2018-05-23T06:44:02.850Z,11.70
2018-05-23T06:46:32.445Z,10.50
2018-05-23T06:49:02.033Z,10.60
2018-05-23T06:51:31.620Z,11.70
2018-05-23T06:54:01.261Z,11.67
2018-05-23T06:56:30.958Z,11.10
2018-05-23T06:59:00.549Z,10.97
2018-05-23T07:01:30.146Z,11.20
2018-05-23T07:03:59.707Z,10.27
2018-05-23T07:06:29.301Z,10.27
2018-05-23T07:08:58.891Z,11.20
2018-05-23T07:11:28.493Z,10.70
2018-05-23T07:13:58.093Z,11.10
2018-05-23T07:16:27.692Z,10.97
2018-05-23T07:18:57.263Z,11.43
2018-05-23T07:21:26.904Z,10.60
2018-05-23T07:23:56.561Z,10.47
2018-05-23T07:26:26.144Z,10.23
2018-05-23T07:28:55.709Z,11.27
2018-05-23T07:31:25.349Z,9.90
2018-05-23T07:33:55.070Z,11.53
2018-05-23T07:36:24.640Z,12.10
2018-05-23T07:38:54.233Z,10.97
2018-05-23T07:41:23.803Z,10.43
2018-05-23T07:43:53.389Z,11.27
2018-05-23T07:46:22.958Z,10.40
2018-05-23T07:48:52.560Z,11.13
2018-05-23T07:51:22.135Z,12.00
2018-05-23T07:53:51.712Z,10.90
2018-05-23T07:56:21.310Z,11.90
2018-05-23T07:58:50.891Z,11.60
2018-05-23T08:01:20.496Z,12.43
2018-05-23T08:03:50.057Z,11.80
2018-05-23T08:06:19.631Z,12.20
2018-05-23T08:08:49.225Z,10.87
2018-05-23T08:11:18.963Z,12.30
2018-05-23T08:13:48.562Z,11.20
2018-05-23T08:16:18.170Z,12.20
2018-05-23T08:18:47.773Z,11.60
2018-05-23T08:21:17.383Z,11.80
2018-05-23T08:23:47.069Z,11.50
2018-05-23T08:26:16.645Z,12.00
2018-05-23T08:28:46.231Z,12.07
2018-05-23T08:31:15.849Z,12.93
2018-05-23T08:33:45.675Z,11.43
2018-05-23T08:36:15.400Z,12.37
2018-05-23T08:38:44.996Z,10.90
2018-05-23T08:41:14.564Z,11.03
2018-05-23T08:43:45.591Z,11.40
2018-05-23T08:46:15.159Z,11.30
2018-05-23T08:48:44.767Z,11.97
2018-05-23T08:51:14.348Z,10.70
2018-05-23T08:53:45.693Z,11.13
2018-05-23T08:56:15.283Z,11.10
2018-05-23T08:58:44.870Z,10.93
2018-05-23T09:01:14.436Z,10.20
2018-05-23T09:03:44.040Z,11.73
2018-05-23T09:06:13.616Z,11.40
2018-05-23T09:08:43.189Z,10.77
2018-05-23T09:11:12.931Z,11.00
2018-05-23T09:13:42.496Z,10.90
2018-05-23T09:16:12.077Z,11.33
2018-05-23T09:18:41.667Z,11.67
2018-05-23T09:21:11.255Z,11.60
2018-05-23T09:23:40.828Z,10.00
2018-05-23T09:26:10.383Z,9.83
2018-05-23T09:28:39.946Z,10.27
2018-05-23T09:31:09.538Z,10.10
2018-05-23T09:33:39.214Z,9.83
2018-05-23T09:36:08.789Z,10.40
2018-05-23T09:38:38.383Z,10.20
2018-05-23T09:41:07.976Z,10.37
2018-05-23T09:43:37.546Z,10.10
2018-05-23T09:46:07.147Z,10.60
2018-05-23T09:48:36.772Z,10.80
2018-05-23T09:51:06.351Z,10.90
2018-05-23T09:53:35.943Z,11.20
2018-05-23T09:56:05.541Z,10.90
2018-05-23T09:58:35.114Z,9.90
2018-05-23T10:01:04.696Z,10.80
2018-05-23T10:03:34.281Z,11.37
2018-05-23T10:06:03.864Z,8.93
2018-05-23T10:08:33.474Z,10.00
2018-05-23T10:11:03.054Z,10.20
2018-05-23T10:13:32.628Z,9.40
2018-05-23T10:16:02.202Z,8.83
2018-05-23T10:18:31.812Z,8.43
2018-05-23T10:21:01.365Z,8.63
2018-05-23T10:23:31.143Z,8.53
2018-05-23T10:26:00.711Z,8.67
2018-05-23T10:28:30.279Z,9.10
2018-05-23T10:30:59.865Z,8.43
2018-05-23T10:33:29.464Z,8.20
2018-05-23T10:35:59.231Z,7.93
2018-05-23T10:38:29.414Z,8.60
2018-05-23T10:40:59.082Z,7.97
2018-05-23T10:43:28.715Z,8.83
2018-05-23T10:45:58.305Z,8.70
2018-05-23T10:48:27.879Z,8.03
2018-05-23T10:50:57.449Z,9.00
2018-05-23T10:53:27.007Z,8.60
2018-05-23T10:55:56.559Z,8.23
2018-05-23T10:58:26.136Z,7.93
2018-05-23T11:00:55.683Z,8.13
2018-05-23T11:03:25.240Z,8.77
2018-05-23T11:05:54.870Z,7.70
2018-05-23T11:08:24.607Z,7.67
2018-05-23T11:10:54.166Z,7.90
2018-05-23T11:13:23.738Z,7.80
2018-05-23T11:15:53.293Z,7.63
2018-05-23T11:18:22.844Z,7.27
2018-05-23T11:20:52.412Z,7.97
2018-05-23T11:23:22.044Z,7.30
2018-05-23T11:25:51.612Z,7.80
2018-05-23T11:28:21.196Z,7.30
2018-05-23T11:30:50.928Z,7.80
2018-05-23T11:33:20.546Z,7.23
2018-05-23T11:35:50.108Z,7.17
2018-05-23T11:38:19.716Z,7.87
2018-05-23T11:40:49.273Z,7.80
2018-05-23T11:43:18.880Z,7.47
2018-05-23T11:45:48.462Z,8.47
2018-05-23T11:48:18.045Z,7.17
2018-05-23T11:50:47.619Z,7.50
2018-05-23T11:53:17.312Z,7.50
2018-05-23T11:55:47.039Z,7.17
2018-05-23T11:58:16.615Z,6.90
2018-05-23T12:00:46.170Z,7.20
2018-05-23T12:03:18.710Z,5.90
2018-05-23T12:05:48.264Z,5.40
2018-05-23T12:08:17.829Z,5.37
2018-05-23T12:10:47.490Z,4.77
2018-05-23T12:13:17.047Z,6.07
2018-05-23T12:15:46.619Z,8.67
2018-05-23T12:18:16.200Z,8.80
2018-05-23T12:20:45.792Z,5.43
2018-05-23T12:23:15.348Z,4.80
2018-05-23T12:25:44.919Z,6.10
2018-05-23T12:28:14.644Z,4.97
2018-05-23T12:30:44.211Z,5.50
2018-05-23T12:33:13.809Z,5.10
2018-05-23T12:35:43.588Z,4.53
2018-05-23T12:38:13.143Z,5.10
2018-05-23T12:40:42.728Z,14.80
2018-05-23T12:43:12.408Z,5.40
2018-05-23T12:45:41.960Z,5.83
2018-05-23T12:48:11.528Z,5.00
2018-05-23T12:50:41.561Z,5.40
2018-05-23T12:53:11.126Z,5.67
2018-05-23T12:55:42.961Z,4.90
2018-05-23T12:58:13.132Z,5.47
2018-05-23T13:00:42.694Z,4.40
2018-05-23T13:03:15.310Z,6.10
2018-05-23T13:05:45.007Z,7.97
2018-05-23T13:08:14.591Z,7.97
2018-05-23T13:10:44.175Z,7.30
2018-05-23T13:13:13.743Z,7.43
2018-05-23T13:15:43.307Z,8.90
2018-05-23T13:18:12.914Z,7.50
2018-05-23T13:20:42.502Z,7.63
2018-05-23T13:23:12.066Z,7.70
2018-05-23T13:25:41.636Z,8.40
2018-05-23T13:28:11.199Z,8.13
2018-05-23T13:30:40.795Z,8.00
2018-05-23T13:33:10.370Z,7.60
2018-05-23T13:35:39.943Z,7.53
2018-05-23T13:38:09.516Z,7.10
2018-05-23T13:40:39.070Z,8.70
2018-05-23T13:43:08.631Z,8.70
2018-05-23T13:45:38.218Z,9.37
2018-05-23T13:48:07.804Z,10.37
2018-05-23T13:50:37.570Z,10.07
2018-05-23T13:53:07.081Z,10.20
2018-05-23T13:55:36.655Z,9.53
2018-05-23T13:58:06.036Z,8.90
2018-05-23T14:00:35.666Z,9.30
2018-05-23T14:03:05.245Z,9.37
2018-05-23T14:05:34.858Z,8.33
2018-05-23T14:08:04.513Z,7.50
2018-05-23T14:10:34.324Z,6.87
2018-05-23T14:13:03.899Z,6.00
2018-05-23T14:15:33.472Z,5.87
2018-05-23T14:18:03.047Z,5.90
2018-05-23T14:20:32.636Z,5.70
2018-05-23T14:23:02.232Z,5.67
2018-05-23T14:25:31.791Z,5.93
2018-05-23T14:28:01.349Z,5.40
2018-05-23T14:30:30.922Z,5.30
2018-05-23T14:33:00.470Z,5.97
2018-05-23T14:35:30.030Z,5.90
2018-05-23T14:37:59.634Z,5.60
2018-05-23T14:40:29.187Z,5.60
2018-05-23T14:42:58.751Z,5.67
2018-05-23T14:45:28.349Z,5.70
2018-05-23T14:47:57.914Z,6.37
2018-05-23T14:50:27.498Z,6.00
2018-05-23T14:52:57.064Z,6.37
2018-05-23T14:55:26.629Z,5.43
2018-05-23T14:57:56.208Z,6.30
2018-05-23T15:00:25.771Z,6.30
2018-05-23T15:02:55.321Z,5.80
2018-05-23T15:05:24.907Z,5.17
2018-05-23T15:07:54.471Z,6.03
2018-05-23T15:10:24.067Z,6.07
2018-05-23T15:12:53.626Z,5.87
2018-05-23T15:15:23.199Z,5.60
2018-05-23T15:17:52.783Z,7.07
2018-05-23T15:20:22.364Z,6.70
2018-05-23T15:22:51.921Z,7.07
2018-05-23T15:25:21.536Z,7.10
2018-05-23T15:27:51.109Z,5.60
2018-05-23T15:30:20.656Z,5.83
2018-05-23T15:32:50.228Z,5.00
2018-05-23T15:35:19.801Z,5.40
2018-05-23T15:37:49.424Z,5.83
2018-05-23T15:40:18.990Z,6.50
2018-05-23T15:42:48.568Z,6.20
2018-05-23T15:45:18.222Z,7.20
2018-05-23T15:47:47.859Z,8.10
2018-05-23T15:50:17.439Z,8.40
2018-05-23T15:52:46.999Z,8.73
2018-05-23T15:55:16.778Z,7.10
2018-05-23T15:57:46.347Z,7.57
2018-05-23T16:00:15.927Z,8.07
2018-05-23T16:02:45.500Z,7.73
2018-05-23T16:05:15.064Z,8.20
2018-05-23T16:07:44.635Z,8.40
2018-05-23T16:10:14.268Z,8.60
2018-05-23T16:12:43.832Z,7.80
2018-05-23T16:15:13.410Z,7.50
2018-05-23T16:17:43.034Z,8.90
2018-05-23T16:20:12.589Z,8.20
2018-05-23T16:22:42.158Z,9.10
2018-05-23T16:25:11.799Z,8.30
2018-05-23T16:27:41.361Z,8.03
2018-05-23T16:30:10.914Z,8.13
2018-05-23T16:32:40.514Z,7.47
2018-05-23T16:35:10.098Z,8.43
2018-05-23T16:37:39.670Z,7.77
2018-05-23T16:40:09.245Z,7.90
2018-05-23T16:42:38.806Z,7.83
2018-05-23T16:45:08.391Z,9.10
2018-05-23T16:47:37.953Z,13.03
2018-05-23T16:50:07.534Z,32.60
2018-05-23T16:52:37.129Z,10.27
2018-05-23T16:55:06.837Z,10.00
2018-05-23T16:57:36.445Z,9.60
2018-05-23T17:00:06.047Z,10.60
2018-05-23T17:02:35.623Z,10.20
2018-05-23T17:05:04.740Z,11.27
2018-05-23T17:07:34.358Z,11.03
2018-05-23T17:10:03.727Z,11.40
2018-05-23T17:12:33.422Z,11.00
2018-05-23T17:15:03.130Z,10.20
2018-05-23T17:17:32.461Z,10.00
2018-05-23T17:20:02.044Z,10.33
2018-05-23T17:22:31.637Z,11.13
2018-05-23T17:25:01.203Z,10.57
2018-05-23T17:27:30.865Z,10.90
2018-05-23T17:30:00.600Z,11.27
2018-05-23T17:32:29.901Z,12.83
2018-05-23T17:34:59.581Z,11.90
2018-05-23T17:37:29.174Z,11.57
2018-05-23T17:39:58.749Z,15.53
2018-05-23T17:42:28.345Z,11.87
2018-05-23T17:44:57.978Z,13.27
2018-05-23T17:47:27.762Z,11.57
2018-05-23T17:49:57.343Z,12.20
2018-05-23T17:52:26.924Z,12.20
2018-05-23T17:54:56.489Z,12.07
2018-05-23T17:57:26.061Z,12.20
2018-05-23T17:59:55.635Z,11.23
2018-05-23T18:02:25.213Z,11.63
2018-05-23T18:04:55.566Z,12.00
2018-05-23T18:07:25.163Z,11.80
2018-05-23T18:09:54.778Z,12.50
2018-05-23T18:12:24.363Z,11.67
2018-05-23T18:14:53.951Z,13.53
2018-05-23T18:17:23.518Z,12.10
2018-05-23T18:19:53.113Z,11.13
2018-05-23T18:22:22.723Z,11.57
2018-05-23T18:24:52.323Z,11.83
2018-05-23T18:27:21.904Z,13.10
2018-05-23T18:29:51.533Z,12.57
2018-05-23T18:32:21.100Z,11.90
2018-05-23T18:34:50.750Z,12.73
2018-05-23T18:37:20.435Z,13.10
2018-05-23T18:39:49.735Z,12.43
2018-05-23T18:42:19.372Z,12.63
2018-05-23T18:44:48.683Z,12.87
2018-05-23T18:47:18.247Z,12.20
2018-05-23T18:49:47.829Z,13.03
2018-05-23T18:52:17.404Z,13.83
2018-05-23T18:54:46.988Z,12.50
2018-05-23T18:57:16.691Z,13.47
2018-05-23T18:59:46.185Z,13.33
2018-05-23T19:02:15.741Z,12.30
2018-05-23T19:04:45.307Z,12.23
2018-05-23T19:07:14.905Z,13.90
2018-05-23T19:09:44.465Z,13.83
2018-05-23T19:12:14.045Z,13.90
2018-05-23T19:14:43.849Z,13.33
2018-05-23T19:17:13.147Z,17.43
2018-05-23T19:19:42.720Z,17.43
2018-05-23T19:22:14.213Z,15.03
2018-05-23T19:24:43.798Z,13.30
2018-05-23T19:27:13.174Z,13.83
2018-05-23T19:29:42.471Z,13.90
2018-05-23T19:32:12.096Z,13.87
2018-05-23T19:34:41.657Z,14.37
2018-05-23T19:37:11.257Z,15.17
2018-05-23T19:39:40.522Z,13.40
2018-05-23T19:42:10.021Z,13.87
2018-05-23T19:44:39.598Z,13.97
2018-05-23T19:47:09.166Z,13.97
2018-05-23T19:49:38.747Z,14.70
2018-05-23T19:52:08.040Z,14.30
2018-05-23T19:54:37.611Z,12.50
2018-05-23T19:57:07.171Z,14.00
2018-05-23T19:59:36.751Z,12.40
2018-05-23T20:02:06.546Z,13.20
2018-05-23T20:04:36.324Z,12.80
2018-05-23T20:07:05.900Z,12.87
2018-05-23T20:09:35.471Z,15.07
2018-05-23T20:12:04.804Z,16.73
2018-05-23T20:14:34.522Z,12.80
2018-05-23T20:17:04.243Z,14.00
2018-05-23T20:19:33.943Z,10.97
2018-05-23T20:22:03.512Z,12.57
2018-05-23T20:24:33.135Z,13.20
2018-05-23T20:27:02.699Z,12.73
2018-05-23T20:29:33.207Z,11.90
2018-05-23T20:32:02.497Z,12.80
2018-05-23T20:34:31.799Z,12.97
2018-05-23T20:37:01.394Z,13.20
2018-05-23T20:39:30.691Z,11.97
2018-05-23T20:41:59.981Z,13.17
2018-05-23T20:44:29.306Z,12.63
2018-05-23T20:46:58.603Z,12.20
2018-05-23T20:49:27.942Z,11.77
2018-05-23T20:51:57.012Z,12.30
2018-05-23T20:54:26.754Z,11.50
2018-05-23T20:56:56.533Z,11.47
2018-05-23T20:59:25.939Z,12.33
2018-05-23T21:01:55.502Z,13.60
2018-05-23T21:04:24.807Z,13.80
2018-05-23T21:06:54.133Z,13.40
2018-05-23T21:09:23.571Z,14.33
2018-05-23T21:11:52.906Z,14.60
2018-05-23T21:14:22.204Z,16.10
2018-05-23T21:16:51.623Z,15.43
2018-05-23T21:19:20.945Z,14.23
2018-05-23T21:21:50.452Z,14.77
2018-05-23T21:24:19.738Z,15.27
2018-05-23T21:26:49.095Z,14.90
2018-05-23T21:29:18.421Z,16.03
2018-05-23T21:31:47.726Z,15.60
2018-05-23T21:34:17.234Z,14.70
2018-05-23T21:36:46.765Z,15.57
2018-05-23T21:39:16.053Z,14.97
2018-05-23T21:41:45.386Z,15.70
2018-05-23T21:44:14.730Z,16.10
2018-05-23T21:46:44.048Z,16.77
2018-05-23T21:49:13.463Z,17.90
2018-05-23T21:51:42.823Z,16.50
2018-05-23T21:54:12.408Z,16.50
2018-05-23T21:56:41.981Z,16.50
2018-05-23T21:59:11.602Z,16.83
2018-05-23T22:01:41.172Z,16.57
2018-05-23T22:04:10.520Z,15.40
2018-05-23T22:06:40.115Z,17.40
2018-05-23T22:09:09.451Z,16.90
2018-05-23T22:11:39.025Z,16.90
2018-05-23T22:14:08.339Z,17.33
2018-05-23T22:16:37.770Z,16.90
2018-05-23T22:19:07.067Z,18.00
2018-05-23T22:21:36.405Z,17.33
2018-05-23T22:24:05.746Z,17.43
2018-05-23T22:26:35.042Z,16.57
2018-05-23T22:29:04.353Z,16.63
2018-05-23T22:31:33.642Z,17.70
2018-05-23T22:34:03.547Z,16.80
2018-05-23T22:36:32.852Z,18.40
2018-05-23T22:39:02.149Z,16.03
2018-05-23T22:41:31.838Z,18.00
2018-05-23T22:44:01.319Z,17.57
2018-05-23T22:46:32.466Z,16.17
2018-05-23T22:49:01.770Z,17.27
2018-05-23T22:51:31.058Z,15.60
2018-05-23T22:54:00.359Z,14.47
2018-05-23T22:56:29.714Z,13.70
2018-05-23T22:58:58.788Z,14.23
2018-05-23T23:01:28.067Z,14.17
2018-05-23T23:03:57.666Z,14.80
2018-05-23T23:06:27.260Z,14.40
2018-05-23T23:08:56.822Z,15.37
2018-05-23T23:11:26.431Z,14.20
2018-05-23T23:13:55.998Z,13.83
2018-05-23T23:16:25.575Z,14.00
2018-05-23T23:18:55.341Z,16.50
2018-05-23T23:21:25.081Z,14.50
2018-05-23T23:23:54.708Z,13.50
2018-05-23T23:26:24.303Z,13.83
2018-05-23T23:28:53.858Z,15.20
2018-05-23T23:31:23.440Z,14.10
2018-05-23T23:33:53.043Z,13.43
2018-05-23T23:36:22.730Z,13.40
2018-05-23T23:38:52.299Z,14.10
2018-05-23T23:41:21.625Z,15.40
2018-05-23T23:43:51.309Z,15.30
2018-05-23T23:46:20.949Z,15.57
2018-05-23T23:48:50.722Z,16.97
2018-05-23T23:51:20.314Z,16.73
2018-05-23T23:53:50.085Z,16.70
2018-05-23T23:56:19.672Z,16.17
2018-05-23T23:58:49.255Z,16.70
